Terminal Aerodrome Forecast
Issued by NWS St Louis, MO

Home | Current Version | Previous Version | Graphics & Text | Print | Product List | Glossary On
Versions: 1 2 3 4 5 6 7 8 9 10 11 12 13 14 15 16 17 18 19 20 21 22 23 24 25 26 27 28
000
FTUS43 KLSX 030520
TAFSTL
TAF
KSTL 030520Z 0306/0412 02008KT P6SM SCT030 OVC200
     FM031000 01004KT P6SM BKN020
     FM031200 02004KT P6SM OVC015
     FM031600 02005KT P6SM BKN025
     FM031800 02008KT P6SM BKN045=

USA.gov is the U.S. government's official web portal to all federal, state and local government web resources and services.